Elk River, ID

8:59 AM PDT on July 24, 2014 (GMT -0700)
Elk River (KIDELKRI3) Elev 2846 ft | 46.78 °N, 116.18 °W | Change Station

Current weather conditions updated 1 minute ago

Partly Cloudy
Partly Cloudy
55.6 °F
Feels Like 55.6 °F
N
5.0
Wind Variable Wind from WSW
Gusts 8.0 mph

Today is forecast to be Much Cooler than yesterday.

Today
High -- | Low -- °F
--% Chance of Precip.
Yesterday
High -- | Low -- °F
Precip. -- in
5:15 AM 8:26 PM
Waning Crescent, 5% visible
Pressure 30.19 in
Visibility 10.0 miles
Clouds Mostly Cloudy 3700 ft
Mostly Cloudy 4600 ft
Dew Point 44 °F
Humidity 65%
Rainfall 0.00 in
Snow Depth 0 in , 1 in
UV 2 out of 12
Pollen 6.30 out of 12
Air Quality Not available.
Flu Activity Not available.
METAR KPUW 241553Z AUTO 25018G26KT 10SM BKN037 BKN046 14/05 A3020 RMK AO2 PK WND 26026/1545 SLP223 T01390050

More Conditions Fewer Conditions

Pressure 30.19 in
Visibility 10.0 miles
Clouds Mostly Cloudy 3700 ft
Mostly Cloudy 4600 ft
Dew Point 44 °F
Humidity 65%
Rainfall 0.00 in
Snow Depth 0 in , 1 in
UV 2 out of 12
Pollen 6.30 out of 12
Air Quality Not available.
Flu Activity Not available.
METAR KPUW 241553Z AUTO 25018G26KT 10SM BKN037 BKN046 14/05 A3020 RMK AO2 PK WND 26026/1545 SLP223 T01390050

More Conditions Fewer Conditions

10-Day Weather Forecast

Almanac

Astronomy

Jul. 24, 2014 Rise Set
Actual Time 5:15 AM PDT 8:26 PM PDT
Civil Twilight 4:38 AM PDT 9:02 PM PDT
Nautical Twilight 3:51 AM PDT 9:49 PM PDT
Astronomical Twilight 2:52 AM PDT 10:48 PM PDT
Moon 3:28 AM PDT 6:42 PM PDT
Length of Visible Light 16h 23m
Length of Day
15h 10m
Tomorrow will be 2m 17s shorter.
Waning Crescent, 5% of the Moon is Illuminated
Today
Waning Crescent
Jul 26
New
Aug 3
First Quarter
Aug 10
Full
Aug 17
Last Quarter

Today's Extremes

State Highs State Lows

Community

WunderPhotos

Upload Photos

1,737,042 photos uploaded!

Nearby

Snow Depth

Station Depth Elevation
Elk Butte 0 in 5690 ft
Sherwin 1 in 3200 ft
Lost Lake 0 in 6110 ft
Shanghi Summit 0 in 4570 ft
Moscow Mountain 1 in 4700 ft

Earthquake Activity

City Distance Mag. Time & Date
No recent earthquake activity has been reported nearby.
Minimum magnitude displayed is 2.5.

Coastal Water Temperatures

Place Temperature
No Stations Reporting

Nearby Weather Stations

Station Location Temp. Dew Point Humidity Wind Precip. Elev Updated Type
Elk River, Elk River, ID 55.6 °F 44 °F 65% WSW  at  5.0 mph 0.00 in / hr 2846 ft 8:57 AM PDT Normal
ITD Shoshone County Line ID , Clarkia, ID 55 °F 43 °F 63% NNW  at  1 mph 0.00 in / hr 2883 ft 8:24 AM PDT MADIS
ITD Deary ID , Deary, ID 57 °F 45 °F 65% WSW  at  5 mph 0.00 in / hr 2932 ft 8:15 AM PDT MADIS
New Hope Subdivision, Lenore, ID 65.7 °F 42 °F 44% North  at  2.2 mph 0.00 in / hr 2087 ft 8:59 AM PDT Rapid Fire
Fernwood, ID 54.3 °F 43 °F 65% SW  at  9.8 mph 0.00 in / hr 2818 ft 8:58 AM PDT Rapid Fire
Orofino, ID 64.9 °F 45 °F 49% ESE  at  0.0 mph - / hr 1045 ft 8:57 AM PDT Normal

Show More Stations Show Fewer Stations